WAT476 NZAA-PHNL
Flight info
| Callsign | WAT476 |
|---|---|
| Flight time | N/A |
| Altitude | 34000 |
| Route | AGREX A580 ATLUR DCT 25S178E/N0487F330 20S180E/N0491F350 DCT SUSUI DCT 15S178W DCT BAXIL DCT 10S175W 05S173W 00N171W DCT CEBUR DCT 05N169W 10N166W/N0481F370 15N162W DCT CHEEM A579 CARRP OPACA4 |
| Aircraft | B77W/H-SDE1E2E3FGHIJ2J3J4J5M1RWXY/LB1D1 |
Departure
| Time | 2026-05-07 17:03 |
|---|---|
| Airport | Auckland International Airport (NZAA) |
Arrival
| Time | N/A |
|---|---|
| Airport | Daniel K. Inouye International Airport (PHNL) |
| Time | Latitude | Longitude | Altitude | Speed | Heading |
|---|---|---|---|---|---|
| 2026-05-07 16:33 | -37.00831 | 174.78146 | 35 ft | 0 kts | 39° |
| 2026-05-07 16:53 | -37.00835 | 174.78143 | 35 ft | 2 kts | 39° |
| 2026-05-07 16:53 | -37.00847 | 174.78131 | 35 ft | 2 kts | 39° |
| 2026-05-07 16:54 | -37.00858 | 174.78119 | 35 ft | 2 kts | 39° |
| 2026-05-07 16:54 | -37.00869 | 174.78107 | 35 ft | 2 kts | 59° |
| 2026-05-07 16:54 | -37.00874 | 174.78088 | 36 ft | 2 kts | 83° |
| 2026-05-07 16:54 | -37.00874 | 174.78070 | 36 ft | 2 kts | 104° |
| 2026-05-07 16:55 | -37.00869 | 174.78053 | 36 ft | 2 kts | 125° |
| 2026-05-07 16:55 | -37.00858 | 174.78040 | 37 ft | 2 kts | 146° |
| 2026-05-07 16:55 | -37.00845 | 174.78032 | 37 ft | 2 kts | 168° |
| 2026-05-07 16:55 | -37.00831 | 174.78029 | 38 ft | 2 kts | 171° |
| 2026-05-07 16:56 | -37.00815 | 174.78026 | 38 ft | 2 kts | 168° |
| 2026-05-07 16:56 | -37.00808 | 174.78024 | 38 ft | 0 kts | 167° |
| 2026-05-07 16:58 | -37.00811 | 174.78026 | 38 ft | 2 kts | 167° |
| 2026-05-07 16:58 | -37.00860 | 174.78041 | 37 ft | 11 kts | 162° |
| 2026-05-07 16:59 | -37.00951 | 174.78079 | 34 ft | 14 kts | 160° |
| 2026-05-07 16:59 | -37.01043 | 174.78091 | 33 ft | 12 kts | 217° |
| 2026-05-07 16:59 | -37.01073 | 174.78021 | 33 ft | 7 kts | 249° |
| 2026-05-07 16:59 | -37.01098 | 174.77940 | 33 ft | 11 kts | 250° |
| 2026-05-07 17:00 | -37.01129 | 174.77832 | 32 ft | 13 kts | 251° |
| 2026-05-07 17:00 | -37.01179 | 174.77745 | 31 ft | 12 kts | 187° |
| 2026-05-07 17:00 | -37.01257 | 174.77705 | 32 ft | 13 kts | 232° |
| 2026-05-07 17:00 | -37.01295 | 174.77602 | 31 ft | 13 kts | 251° |
| 2026-05-07 17:01 | -37.01328 | 174.77481 | 31 ft | 15 kts | 250° |
| 2026-05-07 17:01 | -37.01368 | 174.77341 | 30 ft | 18 kts | 249° |
| 2026-05-07 17:01 | -37.01413 | 174.77179 | 28 ft | 20 kts | 251° |
| 2026-05-07 17:01 | -37.01530 | 174.77094 | 28 ft | 21 kts | 191° |
| 2026-05-07 17:02 | -37.01650 | 174.76996 | 28 ft | 21 kts | 243° |
| 2026-05-07 17:02 | -37.01675 | 174.76814 | 28 ft | 22 kts | 281° |
| 2026-05-07 17:02 | -37.01726 | 174.76753 | 28 ft | 11 kts | 84° |
| 2026-05-07 17:02 | -37.01693 | 174.76857 | 28 ft | 17 kts | 69° |
| 2026-05-07 17:03 | -37.01593 | 174.77211 | 28 ft | 80 kts | 71° |
| 2026-05-07 17:03 | -37.01326 | 174.78178 | 32 ft | 155 kts | 71° |
| 2026-05-07 17:03 | -37.00951 | 174.79634 | 528 ft | 182 kts | 69° |
| 2026-05-07 17:03 | -37.00607 | 174.81049 | 1599 ft | 175 kts | 64° |
| 2026-05-07 17:04 | -37.00139 | 174.82526 | 2396 ft | 193 kts | 63° |
| 2026-05-07 17:04 | -36.99665 | 174.84160 | 3284 ft | 211 kts | 65° |
| 2026-05-07 17:04 | -36.99175 | 174.85933 | 4164 ft | 229 kts | 65° |
| 2026-05-07 17:04 | -36.98632 | 174.87894 | 5122 ft | 247 kts | 66° |
| 2026-05-07 17:05 | -36.98053 | 174.89980 | 6092 ft | 265 kts | 66° |
| 2026-05-07 17:05 | -36.97441 | 174.92192 | 7288 ft | 274 kts | 66° |
| 2026-05-07 17:05 | -36.96821 | 174.94429 | 8471 ft | 280 kts | 66° |
| 2026-05-07 17:05 | -36.96178 | 174.96739 | 9560 ft | 288 kts | 66° |
| 2026-05-07 17:06 | -36.95486 | 174.99116 | 10591 ft | 296 kts | 61° |
| 2026-05-07 17:06 | -36.94418 | 175.01369 | 11345 ft | 310 kts | 47° |
| 2026-05-07 17:06 | -36.92832 | 175.03319 | 12112 ft | 324 kts | 33° |
| 2026-05-07 17:06 | -36.90823 | 175.04712 | 12874 ft | 339 kts | 18° |
| 2026-05-07 17:07 | -36.88495 | 175.05377 | 13656 ft | 352 kts | 2° |
| 2026-05-07 17:07 | -36.86022 | 175.05171 | 14454 ft | 366 kts | 346° |
| 2026-05-07 17:07 | -36.83480 | 175.04399 | 15478 ft | 376 kts | 346° |
| 2026-05-07 17:07 | -36.80869 | 175.03847 | 16631 ft | 383 kts | 350° |
| 2026-05-07 17:08 | -36.78231 | 175.03479 | 17703 ft | 390 kts | 352° |
| 2026-05-07 17:08 | -36.75497 | 175.03188 | 18736 ft | 397 kts | 353° |
| 2026-05-07 17:08 | -36.72725 | 175.02946 | 19806 ft | 401 kts | 353° |
| 2026-05-07 17:08 | -36.69916 | 175.02736 | 20827 ft | 406 kts | 354° |
| 2026-05-07 17:09 | -36.67115 | 175.02548 | 21701 ft | 406 kts | 354° |
| 2026-05-07 17:09 | -36.64197 | 175.02367 | 22214 ft | 413 kts | 354° |
| 2026-05-07 17:09 | -36.61286 | 175.02196 | 22639 ft | 421 kts | 354° |
| 2026-05-07 17:09 | -36.58348 | 175.02031 | 23183 ft | 425 kts | 355° |
| 2026-05-07 17:10 | -36.55411 | 175.01871 | 23796 ft | 427 kts | 355° |
| 2026-05-07 17:10 | -36.52375 | 175.01709 | 24395 ft | 430 kts | 355° |
| 2026-05-07 17:10 | -36.49302 | 175.01547 | 24936 ft | 434 kts | 355° |
| 2026-05-07 17:10 | -36.46217 | 175.01494 | 25432 ft | 441 kts | 0° |
| 2026-05-07 17:11 | -36.43121 | 175.01968 | 25933 ft | 447 kts | 6° |
| 2026-05-07 17:11 | -36.40041 | 175.02605 | 26439 ft | 451 kts | 6° |
| 2026-05-07 17:11 | -36.36941 | 175.03253 | 26942 ft | 454 kts | 6° |
| 2026-05-07 17:11 | -36.33737 | 175.03923 | 27460 ft | 457 kts | 6° |
| 2026-05-07 17:12 | -36.30484 | 175.04601 | 27952 ft | 460 kts | 5° |
| 2026-05-07 17:12 | -36.27304 | 175.05263 | 28384 ft | 464 kts | 5° |
| 2026-05-07 17:12 | -36.24113 | 175.05925 | 28780 ft | 469 kts | 5° |
| 2026-05-07 17:12 | -36.20866 | 175.06598 | 29214 ft | 472 kts | 5° |
| 2026-05-07 17:13 | -36.17596 | 175.07275 | 29689 ft | 475 kts | 5° |
| 2026-05-07 17:13 | -36.14347 | 175.07948 | 30316 ft | 473 kts | 5° |
| 2026-05-07 17:13 | -36.11103 | 175.08621 | 30996 ft | 470 kts | 5° |
| 2026-05-07 17:13 | -36.07914 | 175.09279 | 31475 ft | 471 kts | 4° |
| 2026-05-07 17:14 | -36.04655 | 175.09952 | 31885 ft | 472 kts | 4° |
| 2026-05-07 17:14 | -36.01429 | 175.10616 | 32254 ft | 475 kts | 4° |
| 2026-05-07 17:14 | -35.98131 | 175.11295 | 32696 ft | 475 kts | 4° |
| 2026-05-07 17:14 | -35.94891 | 175.11961 | 33177 ft | 474 kts | 3° |
| 2026-05-07 17:15 | -35.91663 | 175.12625 | 33621 ft | 473 kts | 3° |
| 2026-05-07 17:15 | -35.88395 | 175.13297 | 33995 ft | 473 kts | 3° |
| 2026-05-07 17:15 | -35.85147 | 175.13962 | 34106 ft | 476 kts | 3° |
| 2026-05-07 17:15 | -35.81863 | 175.14635 | 34118 ft | 478 kts | 3° |
| 2026-05-07 17:16 | -35.75303 | 175.15981 | 34119 ft | 473 kts | 3° |
| 2026-05-07 17:16 | -35.68784 | 175.17311 | 34118 ft | 478 kts | 3° |
| 2026-05-07 17:17 | -35.62231 | 175.18648 | 34118 ft | 477 kts | 3° |
| 2026-05-07 17:17 | -35.55690 | 175.19980 | 34119 ft | 480 kts | 3° |
| 2026-05-07 17:18 | -35.49107 | 175.21320 | 34121 ft | 480 kts | 3° |
| 2026-05-07 17:18 | -35.42512 | 175.22659 | 34124 ft | 479 kts | 3° |
| 2026-05-07 17:19 | -35.35938 | 175.23991 | 34125 ft | 480 kts | 3° |
| 2026-05-07 17:19 | -35.29338 | 175.25328 | 34124 ft | 481 kts | 3° |
| 2026-05-07 17:20 | -35.22737 | 175.26660 | 34123 ft | 483 kts | 3° |
| 2026-05-07 17:20 | -35.16130 | 175.27994 | 34128 ft | 485 kts | 3° |
| 2026-05-07 17:21 | -35.09441 | 175.29340 | 34124 ft | 485 kts | 3° |
| 2026-05-07 17:21 | -35.02758 | 175.30682 | 34131 ft | 493 kts | 3° |
| 2026-05-07 17:22 | -34.95881 | 175.32059 | 34130 ft | 507 kts | 3° |
| 2026-05-07 17:22 | -34.88838 | 175.33469 | 34124 ft | 515 kts | 3° |
| 2026-05-07 17:23 | -34.81808 | 175.34880 | 34121 ft | 511 kts | 3° |
| 2026-05-07 17:23 | -34.74743 | 175.36290 | 34126 ft | 515 kts | 4° |
| 2026-05-07 17:24 | -34.67645 | 175.37706 | 34128 ft | 515 kts | 3° |
| 2026-05-07 17:24 | -34.60537 | 175.39121 | 34126 ft | 517 kts | 4° |
| 2026-05-07 17:25 | -34.53445 | 175.40530 | 34127 ft | 517 kts | 4° |
| 2026-05-07 17:25 | -34.46347 | 175.41937 | 34127 ft | 517 kts | 4° |
| 2026-05-07 17:26 | -34.39238 | 175.43344 | 34129 ft | 518 kts | 4° |
| 2026-05-07 17:26 | -34.32081 | 175.44759 | 34130 ft | 520 kts | 4° |
| 2026-05-07 17:27 | -34.24936 | 175.46168 | 34130 ft | 519 kts | 4° |
| 2026-05-07 17:27 | -34.17843 | 175.47566 | 34135 ft | 518 kts | 4° |
| 2026-05-07 17:28 | -34.10703 | 175.48969 | 34133 ft | 520 kts | 4° |
| 2026-05-07 17:28 | -34.03534 | 175.50377 | 34130 ft | 520 kts | 4° |
| 2026-05-07 17:29 | -33.96411 | 175.51772 | 34136 ft | 522 kts | 4° |
| 2026-05-07 17:29 | -33.89246 | 175.53172 | 34132 ft | 522 kts | 4° |
| 2026-05-07 17:30 | -33.82051 | 175.54576 | 34132 ft | 524 kts | 4° |
| 2026-05-07 17:30 | -33.74853 | 175.55980 | 34132 ft | 524 kts | 4° |
| 2026-05-07 17:31 | -33.67652 | 175.57474 | 34129 ft | 526 kts | 6° |
| 2026-05-07 17:31 | -33.60473 | 175.59084 | 34131 ft | 525 kts | 6° |
| 2026-05-07 17:32 | -33.53260 | 175.60690 | 34131 ft | 526 kts | 6° |
| 2026-05-07 17:32 | -33.47255 | 175.62022 | 34128 ft | 527 kts | 6° |
| 2026-05-07 17:33 | -33.38833 | 175.63886 | 34127 ft | 527 kts | 6° |
| 2026-05-07 17:33 | -33.31623 | 175.65475 | 34118 ft | 528 kts | 5° |
| 2026-05-07 17:34 | -33.24404 | 175.67064 | 34115 ft | 527 kts | 5° |
| 2026-05-07 17:34 | -33.17194 | 175.68648 | 34117 ft | 529 kts | 5° |
| 2026-05-07 17:35 | -33.09932 | 175.70241 | 34117 ft | 527 kts | 5° |
| 2026-05-07 17:35 | -33.02716 | 175.71819 | 34116 ft | 529 kts | 6° |
| 2026-05-07 17:36 | -32.95454 | 175.73406 | 34116 ft | 529 kts | 6° |
| 2026-05-07 17:36 | -32.88228 | 175.74980 | 34112 ft | 531 kts | 6° |
| 2026-05-07 17:37 | -32.80919 | 175.76572 | 34110 ft | 533 kts | 6° |
| 2026-05-07 17:37 | -32.73611 | 175.78160 | 34109 ft | 533 kts | 6° |
| 2026-05-07 17:38 | -32.66331 | 175.79739 | 34105 ft | 533 kts | 6° |
| 2026-05-07 17:38 | -32.59049 | 175.81317 | 34105 ft | 532 kts | 6° |
| 2026-05-07 17:39 | -32.51735 | 175.82899 | 34111 ft | 533 kts | 6° |
| 2026-05-07 17:39 | -32.44467 | 175.84468 | 34107 ft | 533 kts | 6° |
| 2026-05-07 17:40 | -32.37123 | 175.86050 | 34110 ft | 534 kts | 6° |
| 2026-05-07 17:40 | -32.29837 | 175.87619 | 34114 ft | 535 kts | 6° |
| 2026-05-07 17:41 | -32.22477 | 175.89200 | 34114 ft | 535 kts | 6° |
| 2026-05-07 17:41 | -32.15132 | 175.90775 | 34107 ft | 535 kts | 6° |
| 2026-05-07 17:42 | -32.07843 | 175.92335 | 34118 ft | 536 kts | 6° |
| 2026-05-07 17:42 | -32.00462 | 175.93913 | 34117 ft | 538 kts | 6° |
| 2026-05-07 17:43 | -31.93079 | 175.95489 | 34113 ft | 539 kts | 6° |
| 2026-05-07 17:43 | -31.85745 | 175.97054 | 34108 ft | 537 kts | 6° |
| 2026-05-07 17:44 | -31.78360 | 175.98624 | 34100 ft | 536 kts | 6° |
| 2026-05-07 17:44 | -31.71004 | 176.00186 | 34104 ft | 537 kts | 6° |
| 2026-05-07 17:45 | -31.63686 | 176.01738 | 34107 ft | 538 kts | 6° |
| 2026-05-07 17:45 | -31.56346 | 176.03293 | 34105 ft | 537 kts | 6° |
| 2026-05-07 17:46 | -31.48971 | 176.04851 | 34106 ft | 537 kts | 6° |
| 2026-05-07 17:46 | -31.41618 | 176.06403 | 34100 ft | 537 kts | 6° |
| 2026-05-07 17:47 | -31.34219 | 176.07962 | 34094 ft | 538 kts | 6° |
| 2026-05-07 17:47 | -31.26871 | 176.09508 | 34096 ft | 540 kts | 6° |
| 2026-05-07 17:48 | -31.19485 | 176.11058 | 34102 ft | 540 kts | 6° |
| 2026-05-07 17:48 | -31.12079 | 176.12611 | 34099 ft | 538 kts | 6° |
| 2026-05-07 17:49 | -31.04701 | 176.14157 | 34096 ft | 538 kts | 7° |
| 2026-05-07 17:49 | -30.97336 | 176.15697 | 34102 ft | 537 kts | 7° |
| 2026-05-07 17:50 | -30.89978 | 176.17232 | 34100 ft | 540 kts | 6° |
| 2026-05-07 17:50 | -30.82558 | 176.18777 | 34089 ft | 540 kts | 7° |
| 2026-05-07 17:51 | -30.75177 | 176.20314 | 34092 ft | 538 kts | 6° |
| 2026-05-07 17:51 | -30.67809 | 176.21845 | 34085 ft | 541 kts | 7° |
| 2026-05-07 17:52 | -30.60394 | 176.23383 | 34088 ft | 540 kts | 7° |
| 2026-05-07 17:52 | -30.52943 | 176.24925 | 34090 ft | 541 kts | 7° |
| 2026-05-07 17:53 | -30.45585 | 176.26447 | 34084 ft | 540 kts | 7° |
| 2026-05-07 17:53 | -30.38143 | 176.27983 | 34086 ft | 541 kts | 7° |
| 2026-05-07 17:54 | -30.30701 | 176.29517 | 34086 ft | 542 kts | 6° |
| 2026-05-07 17:54 | -30.23303 | 176.31039 | 34083 ft | 543 kts | 7° |
| 2026-05-07 17:55 | -30.15848 | 176.32571 | 34085 ft | 542 kts | 6° |
| 2026-05-07 17:55 | -30.08402 | 176.34099 | 34082 ft | 544 kts | 7° |
| 2026-05-07 17:56 | -30.00966 | 176.35632 | 34075 ft | 545 kts | 8° |
| 2026-05-07 17:56 | -29.93624 | 176.37982 | 34082 ft | 546 kts | 14° |
| 2026-05-07 17:57 | -29.87563 | 176.40080 | 34072 ft | 545 kts | 14° |
| 2026-05-07 17:57 | -29.79047 | 176.43016 | 34070 ft | 548 kts | 14° |
| 2026-05-07 17:58 | -29.71704 | 176.45540 | 34073 ft | 548 kts | 14° |
| 2026-05-07 17:58 | -29.64422 | 176.48036 | 34066 ft | 550 kts | 14° |
| 2026-05-07 17:59 | -29.57060 | 176.50555 | 34068 ft | 549 kts | 14° |
| 2026-05-07 17:59 | -29.49723 | 176.53061 | 34065 ft | 551 kts | 14° |
| 2026-05-07 18:00 | -29.42382 | 176.55565 | 34063 ft | 549 kts | 14° |
| 2026-05-07 18:00 | -29.35089 | 176.58048 | 34068 ft | 550 kts | 14° |
| 2026-05-07 18:01 | -29.27753 | 176.60541 | 34065 ft | 550 kts | 14° |
| 2026-05-07 18:01 | -29.20401 | 176.63036 | 34066 ft | 550 kts | 14° |
| 2026-05-07 18:02 | -29.09366 | 176.66774 | 34060 ft | 551 kts | 14° |
| 2026-05-07 18:03 | -29.01996 | 176.69266 | 34074 ft | 552 kts | 13° |
| 2026-05-07 18:03 | -28.94586 | 176.71768 | 34080 ft | 554 kts | 13° |
| 2026-05-07 18:04 | -28.87210 | 176.74254 | 34064 ft | 553 kts | 14° |
| 2026-05-07 18:04 | -28.79809 | 176.76746 | 34063 ft | 552 kts | 13° |
| 2026-05-07 18:05 | -28.72421 | 176.79228 | 34070 ft | 555 kts | 13° |
| 2026-05-07 18:05 | -28.65032 | 176.81708 | 34066 ft | 556 kts | 14° |
| 2026-05-07 18:06 | -28.57623 | 176.84192 | 34073 ft | 554 kts | 13° |
| 2026-05-07 18:06 | -28.50240 | 176.86662 | 34068 ft | 556 kts | 14° |
| 2026-05-07 18:07 | -28.42813 | 176.89143 | 34068 ft | 554 kts | 14° |
| 2026-05-07 18:07 | -28.35390 | 176.91620 | 34078 ft | 555 kts | 13° |
| 2026-05-07 18:08 | -28.27976 | 176.94090 | 34071 ft | 556 kts | 14° |
| 2026-05-07 18:08 | -28.20560 | 176.96558 | 34081 ft | 556 kts | 14° |
| 2026-05-07 18:09 | -28.13117 | 176.99030 | 34072 ft | 557 kts | 14° |
| 2026-05-07 18:09 | -28.05678 | 177.01497 | 34073 ft | 558 kts | 14° |
| 2026-05-07 18:10 | -27.98269 | 177.03952 | 34080 ft | 559 kts | 14° |
| 2026-05-07 18:10 | -27.90815 | 177.06418 | 34080 ft | 556 kts | 13° |
| 2026-05-07 18:11 | -27.83376 | 177.08874 | 34064 ft | 555 kts | 14° |
| 2026-05-07 18:11 | -27.75928 | 177.11331 | 34063 ft | 556 kts | 13° |
| 2026-05-07 18:12 | -27.68514 | 177.13773 | 34062 ft | 556 kts | 13° |
| 2026-05-07 18:12 | -27.61053 | 177.16226 | 34062 ft | 556 kts | 13° |
| 2026-05-07 18:13 | -27.53612 | 177.18669 | 34058 ft | 558 kts | 13° |
| 2026-05-07 18:13 | -27.46158 | 177.21114 | 34067 ft | 559 kts | 14° |
| 2026-05-07 18:14 | -27.38667 | 177.23567 | 34056 ft | 558 kts | 13° |
| 2026-05-07 18:14 | -27.31213 | 177.26006 | 34057 ft | 559 kts | 13° |
| 2026-05-07 18:15 | -27.23683 | 177.28464 | 34063 ft | 560 kts | 13° |
| 2026-05-07 18:15 | -27.16214 | 177.30899 | 34071 ft | 560 kts | 13° |
| 2026-05-07 18:16 | -27.08707 | 177.33344 | 34061 ft | 561 kts | 13° |
| 2026-05-07 18:16 | -27.01194 | 177.35788 | 34063 ft | 561 kts | 13° |
| 2026-05-07 18:17 | -26.93676 | 177.38229 | 34066 ft | 561 kts | 14° |
| 2026-05-07 18:17 | -26.86170 | 177.40663 | 34048 ft | 561 kts | 13° |
| 2026-05-07 18:18 | -26.78650 | 177.43098 | 34046 ft | 563 kts | 13° |
| 2026-05-07 18:18 | -26.71135 | 177.45529 | 34044 ft | 561 kts | 13° |
| 2026-05-07 18:19 | -26.63543 | 177.47980 | 34043 ft | 563 kts | 13° |
| 2026-05-07 18:19 | -26.56017 | 177.50407 | 34039 ft | 564 kts | 13° |
| 2026-05-07 18:20 | -26.48446 | 177.52846 | 34039 ft | 564 kts | 13° |
| 2026-05-07 18:20 | -26.40889 | 177.55276 | 34034 ft | 565 kts | 13° |
| 2026-05-07 18:21 | -26.33288 | 177.57718 | 34035 ft | 566 kts | 13° |
| 2026-05-07 18:21 | -26.25720 | 177.60146 | 34038 ft | 566 kts | 13° |
| 2026-05-07 18:22 | -26.18099 | 177.62585 | 34036 ft | 567 kts | 13° |
| 2026-05-07 18:22 | -26.10475 | 177.65025 | 34037 ft | 567 kts | 13° |
| 2026-05-07 18:23 | -26.02892 | 177.67447 | 34020 ft | 567 kts | 12° |
| 2026-05-07 18:23 | -25.95306 | 177.69867 | 34025 ft | 568 kts | 12° |
| 2026-05-07 18:24 | -25.87690 | 177.72293 | 34006 ft | 569 kts | 12° |
| 2026-05-07 18:24 | -25.80074 | 177.74718 | 34005 ft | 570 kts | 12° |
| 2026-05-07 18:25 | -25.72452 | 177.77138 | 34004 ft | 571 kts | 13° |
| 2026-05-07 18:25 | -25.64757 | 177.79581 | 34012 ft | 570 kts | 13° |
| 2026-05-07 18:26 | -25.57105 | 177.82005 | 34007 ft | 571 kts | 13° |
| 2026-05-07 18:26 | -25.49509 | 177.84409 | 34012 ft | 570 kts | 12° |
| 2026-05-07 18:27 | -25.41862 | 177.86826 | 34005 ft | 569 kts | 13° |
| 2026-05-07 18:27 | -25.34182 | 177.89250 | 34012 ft | 570 kts | 12° |
| 2026-05-07 18:28 | -25.26537 | 177.91660 | 34015 ft | 572 kts | 12° |
| 2026-05-07 18:28 | -25.18871 | 177.94072 | 34012 ft | 573 kts | 13° |
| 2026-05-07 18:29 | -25.11249 | 177.96469 | 34021 ft | 572 kts | 12° |
| 2026-05-07 18:29 | -25.03525 | 177.98894 | 34024 ft | 573 kts | 12° |
| 2026-05-07 18:30 | -24.95919 | 178.01471 | 33927 ft | 565 kts | 18° |
| 2026-05-07 18:30 | -24.92246 | 178.03026 | 33289 ft | 564 kts | 18° |
| 2026-05-07 18:30 | -24.88556 | 178.04605 | 33029 ft | 567 kts | 18° |
| 2026-05-07 18:31 | -24.81088 | 178.07768 | 33007 ft | 582 kts | 18° |
| 2026-05-07 18:31 | -24.73473 | 178.10965 | 33007 ft | 580 kts | 18° |
| 2026-05-07 18:32 | -24.65923 | 178.14114 | 33009 ft | 581 kts | 18° |
| 2026-05-07 18:32 | -24.58351 | 178.17259 | 33008 ft | 581 kts | 18° |
| 2026-05-07 18:33 | -24.50740 | 178.20410 | 33009 ft | 582 kts | 18° |
| 2026-05-07 18:33 | -24.43164 | 178.23540 | 33004 ft | 580 kts | 18° |
| 2026-05-07 18:34 | -24.35552 | 178.26678 | 33004 ft | 582 kts | 18° |
| 2026-05-07 18:34 | -24.27959 | 178.29805 | 33012 ft | 582 kts | 18° |
| 2026-05-07 18:35 | -24.20387 | 178.32918 | 33016 ft | 583 kts | 18° |
| 2026-05-07 18:35 | -24.12794 | 178.36034 | 33015 ft | 581 kts | 18° |
| 2026-05-07 18:36 | -24.05191 | 178.39149 | 33012 ft | 583 kts | 17° |
| 2026-05-07 18:36 | -23.97556 | 178.42276 | 33015 ft | 582 kts | 18° |
| 2026-05-07 18:37 | -23.89987 | 178.45371 | 33019 ft | 582 kts | 17° |
| 2026-05-07 18:37 | -23.82373 | 178.48480 | 33001 ft | 583 kts | 18° |
| 2026-05-07 18:38 | -23.74738 | 178.51593 | 33004 ft | 584 kts | 17° |
| 2026-05-07 18:38 | -23.67071 | 178.54717 | 33001 ft | 584 kts | 18° |
| 2026-05-07 18:39 | -23.59427 | 178.57826 | 33003 ft | 584 kts | 17° |
| 2026-05-07 18:39 | -23.51792 | 178.60928 | 33005 ft | 584 kts | 17° |
| 2026-05-07 18:40 | -23.44183 | 178.64017 | 33010 ft | 586 kts | 17° |
| 2026-05-07 18:40 | -23.36514 | 178.67127 | 32996 ft | 584 kts | 17° |
| 2026-05-07 18:41 | -23.28854 | 178.70227 | 32997 ft | 586 kts | 17° |
| 2026-05-07 18:41 | -23.21163 | 178.73337 | 32999 ft | 585 kts | 17° |
| 2026-05-07 18:42 | -23.13529 | 178.76421 | 33001 ft | 586 kts | 17° |
| 2026-05-07 18:42 | -23.05839 | 178.79523 | 33002 ft | 586 kts | 17° |
| 2026-05-07 18:43 | -22.98145 | 178.82622 | 33003 ft | 587 kts | 17° |
| 2026-05-07 18:43 | -22.90452 | 178.85718 | 33003 ft | 586 kts | 17° |
| 2026-05-07 18:44 | -22.82756 | 178.88811 | 32989 ft | 585 kts | 17° |
| 2026-05-07 18:44 | -22.75138 | 178.91869 | 32984 ft | 584 kts | 17° |
| 2026-05-07 18:45 | -22.67455 | 178.94948 | 32986 ft | 584 kts | 16° |
| 2026-05-07 18:45 | -22.59770 | 178.98025 | 32986 ft | 584 kts | 16° |
| 2026-05-07 18:46 | -22.52069 | 179.01105 | 32993 ft | 583 kts | 16° |
| 2026-05-07 18:46 | -22.44404 | 179.04167 | 32992 ft | 585 kts | 17° |
| 2026-05-07 18:47 | -22.36748 | 179.07222 | 32993 ft | 584 kts | 17° |
| 2026-05-07 18:47 | -22.29021 | 179.10301 | 32994 ft | 584 kts | 17° |
| 2026-05-07 18:48 | -22.21297 | 179.13376 | 32995 ft | 584 kts | 17° |
| 2026-05-07 18:48 | -22.13659 | 179.16412 | 32996 ft | 584 kts | 16° |
| 2026-05-07 18:49 | -22.06013 | 179.19449 | 32998 ft | 583 kts | 16° |
| 2026-05-07 18:49 | -21.98402 | 179.22469 | 33000 ft | 585 kts | 16° |
| 2026-05-07 18:50 | -21.90781 | 179.25488 | 33002 ft | 582 kts | 16° |
| 2026-05-07 18:50 | -21.83153 | 179.28507 | 32987 ft | 583 kts | 16° |
| 2026-05-07 18:51 | -21.75525 | 179.31522 | 32987 ft | 582 kts | 16° |
| 2026-05-07 18:51 | -21.67910 | 179.34529 | 32990 ft | 582 kts | 16° |
| 2026-05-07 18:52 | -21.60257 | 179.37547 | 32989 ft | 581 kts | 16° |
| 2026-05-07 18:52 | -21.52646 | 179.40546 | 32990 ft | 580 kts | 16° |
| 2026-05-07 18:53 | -21.45027 | 179.43544 | 32991 ft | 580 kts | 16° |
| 2026-05-07 18:53 | -21.37382 | 179.46550 | 32990 ft | 581 kts | 16° |
| 2026-05-07 18:54 | -21.29807 | 179.49524 | 32994 ft | 582 kts | 17° |
| 2026-05-07 18:54 | -21.22142 | 179.52530 | 32996 ft | 581 kts | 17° |
| 2026-05-07 18:55 | -21.14553 | 179.55504 | 32997 ft | 581 kts | 17° |
| 2026-05-07 18:55 | -21.06963 | 179.58475 | 32996 ft | 579 kts | 17° |
| 2026-05-07 18:56 | -20.99342 | 179.61453 | 32996 ft | 579 kts | 16° |
| 2026-05-07 18:56 | -20.91738 | 179.64423 | 32993 ft | 579 kts | 16° |
| 2026-05-07 18:57 | -20.84139 | 179.67387 | 32961 ft | 577 kts | 16° |
| 2026-05-07 18:57 | -20.76533 | 179.70351 | 32962 ft | 579 kts | 16° |
| 2026-05-07 18:58 | -20.68937 | 179.73308 | 32963 ft | 578 kts | 16° |
| 2026-05-07 18:58 | -20.61367 | 179.76251 | 32965 ft | 577 kts | 16° |
| 2026-05-07 18:59 | -20.53771 | 179.79202 | 32968 ft | 578 kts | 16° |
| 2026-05-07 18:59 | -20.46128 | 179.82167 | 32971 ft | 577 kts | 16° |
| 2026-05-07 19:00 | -20.38588 | 179.85089 | 32970 ft | 576 kts | 16° |
| 2026-05-07 19:00 | -20.31017 | 179.88020 | 32973 ft | 577 kts | 16° |
| 2026-05-07 19:01 | -20.23391 | 179.90970 | 32974 ft | 578 kts | 16° |
| 2026-05-07 19:01 | -20.15871 | 179.93875 | 32973 ft | 576 kts | 16° |
| 2026-05-07 19:02 | -20.08282 | 179.96805 | 32980 ft | 576 kts | 16° |
| 2026-05-07 19:02 | -20.00735 | 179.99693 | 32972 ft | 574 kts | 14° |
| 2026-05-07 19:03 | -19.92969 | -179.98070 | 33650 ft | 573 kts | 10° |
| 2026-05-07 19:03 | -19.89150 | -179.97023 | 34554 ft | 564 kts | 10° |
| 2026-05-07 19:03 | -19.85386 | -179.95991 | 34946 ft | 560 kts | 10° |
| 2026-05-07 19:04 | -19.77816 | -179.93924 | 34968 ft | 560 kts | 10° |
| 2026-05-07 19:04 | -19.70188 | -179.91841 | 34968 ft | 561 kts | 10° |
| 2026-05-07 19:05 | -19.62567 | -179.89761 | 34972 ft | 561 kts | 10° |
| 2026-05-07 19:05 | -19.54996 | -179.87697 | 34972 ft | 561 kts | 10° |
| 2026-05-07 19:06 | -19.47452 | -179.85641 | 34974 ft | 558 kts | 10° |
| 2026-05-07 19:06 | -19.36062 | -179.82544 | 34977 ft | 564 kts | 10° |
| 2026-05-07 19:07 | -19.28466 | -179.80478 | 34977 ft | 561 kts | 10° |
| 2026-05-07 19:07 | -19.20828 | -179.78406 | 34975 ft | 561 kts | 10° |
| 2026-05-07 19:08 | -19.13272 | -179.76356 | 34980 ft | 561 kts | 10° |
| 2026-05-07 19:08 | -19.05686 | -179.74300 | 34980 ft | 560 kts | 10° |
| 2026-05-07 19:09 | -18.98108 | -179.72249 | 34980 ft | 560 kts | 10° |
| 2026-05-07 19:09 | -18.90553 | -179.70204 | 34981 ft | 558 kts | 11° |
| 2026-05-07 19:10 | -18.83020 | -179.68169 | 34971 ft | 558 kts | 11° |
| 2026-05-07 19:10 | -18.75505 | -179.66141 | 34974 ft | 558 kts | 11° |
| 2026-05-07 19:11 | -18.67954 | -179.64104 | 34974 ft | 557 kts | 10° |
| 2026-05-07 19:11 | -18.60453 | -179.62082 | 34974 ft | 556 kts | 10° |
| 2026-05-07 19:12 | -18.52971 | -179.60068 | 34978 ft | 555 kts | 10° |
| 2026-05-07 19:12 | -18.45476 | -179.58050 | 34973 ft | 555 kts | 11° |
| 2026-05-07 19:13 | -18.37989 | -179.56039 | 34979 ft | 555 kts | 11° |
| 2026-05-07 19:13 | -18.30482 | -179.54022 | 34975 ft | 553 kts | 11° |
| 2026-05-07 19:14 | -18.23039 | -179.52026 | 34979 ft | 553 kts | 11° |
| 2026-05-07 19:14 | -18.15571 | -179.50024 | 34979 ft | 552 kts | 11° |
| 2026-05-07 19:15 | -18.08092 | -179.48021 | 34965 ft | 552 kts | 10° |
| 2026-05-07 19:15 | -18.00641 | -179.46028 | 34969 ft | 552 kts | 10° |
| 2026-05-07 19:16 | -17.93180 | -179.44032 | 34969 ft | 552 kts | 10° |
| 2026-05-07 19:16 | -17.85709 | -179.42036 | 34958 ft | 551 kts | 10° |
| 2026-05-07 19:17 | -17.78267 | -179.40051 | 34952 ft | 552 kts | 10° |
| 2026-05-07 19:17 | -17.70858 | -179.38075 | 34952 ft | 550 kts | 10° |
| 2026-05-07 19:18 | -17.63400 | -179.36089 | 34952 ft | 550 kts | 11° |
| 2026-05-07 19:18 | -17.55983 | -179.34114 | 34951 ft | 548 kts | 10° |
| 2026-05-07 19:19 | -17.48587 | -179.32147 | 34950 ft | 548 kts | 10° |
| 2026-05-07 19:19 | -17.41180 | -179.30179 | 34949 ft | 549 kts | 10° |
| 2026-05-07 19:20 | -17.33893 | -179.27740 | 34944 ft | 554 kts | 22° |
| 2026-05-07 19:20 | -17.27024 | -179.24034 | 34952 ft | 556 kts | 25° |
| 2026-05-07 19:21 | -17.20174 | -179.20233 | 34951 ft | 554 kts | 25° |
| 2026-05-07 19:21 | -17.13363 | -179.16461 | 34954 ft | 552 kts | 25° |
| 2026-05-07 19:22 | -17.06573 | -179.12706 | 34954 ft | 552 kts | 25° |
| 2026-05-07 19:22 | -16.99774 | -179.08951 | 34950 ft | 552 kts | 25° |
| 2026-05-07 19:23 | -16.92946 | -179.05185 | 34953 ft | 552 kts | 25° |
| 2026-05-07 19:23 | -16.86154 | -179.01442 | 34949 ft | 552 kts | 25° |
| 2026-05-07 19:24 | -16.79326 | -178.97682 | 34947 ft | 552 kts | 25° |
| 2026-05-07 19:24 | -16.72542 | -178.93948 | 34950 ft | 552 kts | 25° |
| 2026-05-07 19:25 | -16.65725 | -178.90202 | 34955 ft | 553 kts | 25° |
| 2026-05-07 19:25 | -16.58943 | -178.86476 | 34954 ft | 550 kts | 25° |
| 2026-05-07 19:26 | -16.52167 | -178.82758 | 34950 ft | 549 kts | 25° |
| 2026-05-07 19:26 | -16.45389 | -178.79042 | 34952 ft | 549 kts | 25° |
| 2026-05-07 19:27 | -16.38603 | -178.75323 | 34959 ft | 549 kts | 25° |
| 2026-05-07 19:27 | -16.31834 | -178.71617 | 34959 ft | 549 kts | 25° |
| 2026-05-07 19:28 | -16.25093 | -178.67929 | 34967 ft | 548 kts | 25° |
| 2026-05-07 19:28 | -16.18296 | -178.64214 | 34961 ft | 549 kts | 25° |
| 2026-05-07 19:29 | -16.11522 | -178.60513 | 34965 ft | 549 kts | 25° |
| 2026-05-07 19:29 | -16.04774 | -178.56831 | 34978 ft | 549 kts | 25° |
| 2026-05-07 19:30 | -15.98024 | -178.53149 | 34980 ft | 548 kts | 25° |
| 2026-05-07 19:30 | -15.91258 | -178.49463 | 34977 ft | 547 kts | 25° |
| 2026-05-07 19:31 | -15.84552 | -178.45811 | 34962 ft | 547 kts | 25° |
| 2026-05-07 19:31 | -15.77783 | -178.42128 | 34961 ft | 547 kts | 25° |
| 2026-05-07 19:32 | -15.71031 | -178.38457 | 34965 ft | 547 kts | 25° |
| 2026-05-07 19:32 | -15.64259 | -178.34778 | 34965 ft | 546 kts | 25° |
| 2026-05-07 19:33 | -15.57510 | -178.31114 | 34966 ft | 546 kts | 25° |
| 2026-05-07 19:33 | -15.50771 | -178.27458 | 34969 ft | 547 kts | 25° |
| 2026-05-07 19:34 | -15.44029 | -178.23804 | 34970 ft | 546 kts | 25° |
| 2026-05-07 19:34 | -15.37300 | -178.20158 | 34971 ft | 545 kts | 25° |
| 2026-05-07 19:35 | -15.30527 | -178.16492 | 34969 ft | 546 kts | 25° |
| 2026-05-07 19:35 | -15.23799 | -178.12852 | 34972 ft | 546 kts | 25° |
| 2026-05-07 19:36 | -15.17090 | -178.09227 | 34972 ft | 545 kts | 25° |
| 2026-05-07 19:36 | -15.10305 | -178.05563 | 34974 ft | 547 kts | 25° |
| 2026-05-07 19:37 | -15.03574 | -178.01930 | 34973 ft | 546 kts | 25° |
| 2026-05-07 19:37 | -14.96792 | -177.98322 | 34976 ft | 546 kts | 24° |
| 2026-05-07 19:38 | -14.89991 | -177.94859 | 34973 ft | 544 kts | 24° |
| 2026-05-07 19:38 | -14.83183 | -177.91394 | 34967 ft | 542 kts | 24° |
| 2026-05-07 19:39 | -14.76400 | -177.87939 | 34966 ft | 543 kts | 24° |
| 2026-05-07 19:39 | -14.70741 | -177.85057 | 34965 ft | 544 kts | 24° |
| 2026-05-07 19:40 | -14.62847 | -177.81038 | 34964 ft | 543 kts | 24° |
| 2026-05-07 19:40 | -14.56061 | -177.77583 | 34961 ft | 543 kts | 24° |
| 2026-05-07 19:41 | -14.49235 | -177.74110 | 34962 ft | 543 kts | 24° |
| 2026-05-07 19:41 | -14.42500 | -177.70686 | 34961 ft | 542 kts | 24° |
| 2026-05-07 19:42 | -14.35735 | -177.67248 | 34960 ft | 541 kts | 24° |
| 2026-05-07 19:42 | -14.28957 | -177.63806 | 34958 ft | 541 kts | 24° |
| 2026-05-07 19:43 | -14.22208 | -177.60382 | 34957 ft | 540 kts | 24° |
| 2026-05-07 19:43 | -14.15457 | -177.56958 | 34958 ft | 539 kts | 24° |
| 2026-05-07 19:44 | -14.08730 | -177.53549 | 34956 ft | 539 kts | 24° |
| 2026-05-07 19:44 | -14.01980 | -177.50130 | 34958 ft | 537 kts | 24° |
| 2026-05-07 19:45 | -13.95250 | -177.46724 | 34957 ft | 538 kts | 24° |
| 2026-05-07 19:45 | -13.88493 | -177.43306 | 34956 ft | 538 kts | 24° |
| 2026-05-07 19:46 | -13.81779 | -177.39912 | 34956 ft | 538 kts | 24° |
| 2026-05-07 19:46 | -13.75056 | -177.36517 | 34955 ft | 537 kts | 24° |
| 2026-05-07 19:47 | -13.68349 | -177.33131 | 34949 ft | 536 kts | 24° |
| 2026-05-07 19:47 | -13.61669 | -177.29761 | 34950 ft | 535 kts | 24° |
| 2026-05-07 19:48 | -13.54934 | -177.26366 | 34950 ft | 535 kts | 24° |
| 2026-05-07 19:48 | -13.48276 | -177.23010 | 34951 ft | 535 kts | 24° |
| 2026-05-07 19:49 | -13.41573 | -177.19635 | 34950 ft | 535 kts | 24° |
| 2026-05-07 19:49 | -13.34910 | -177.16283 | 34951 ft | 533 kts | 24° |
| 2026-05-07 19:50 | -13.28215 | -177.12915 | 34951 ft | 533 kts | 24° |
| 2026-05-07 19:50 | -13.21552 | -177.09566 | 34951 ft | 533 kts | 24° |
| 2026-05-07 19:51 | -13.14911 | -177.06230 | 34952 ft | 532 kts | 24° |
| 2026-05-07 19:51 | -13.08221 | -177.02872 | 34952 ft | 532 kts | 24° |
| 2026-05-07 19:52 | -13.01618 | -176.99445 | 34946 ft | 534 kts | 30° |
| 2026-05-07 19:52 | -12.95341 | -176.95296 | 34950 ft | 534 kts | 32° |
| 2026-05-07 19:53 | -12.89127 | -176.91124 | 34949 ft | 534 kts | 32° |
| 2026-05-07 19:53 | -12.82918 | -176.86961 | 34947 ft | 534 kts | 32° |
| 2026-05-07 19:54 | -12.76700 | -176.82799 | 34946 ft | 532 kts | 32° |
| 2026-05-07 19:54 | -12.70510 | -176.78657 | 34948 ft | 531 kts | 32° |
| 2026-05-07 19:55 | -12.64320 | -176.74521 | 34941 ft | 531 kts | 32° |
| 2026-05-07 19:55 | -12.58127 | -176.70384 | 34938 ft | 531 kts | 32° |
| 2026-05-07 19:56 | -12.51917 | -176.66240 | 34938 ft | 531 kts | 32° |
| 2026-05-07 19:56 | -12.45742 | -176.62122 | 34936 ft | 530 kts | 32° |
| 2026-05-07 19:57 | -12.39556 | -176.57997 | 34938 ft | 530 kts | 32° |
| 2026-05-07 19:57 | -12.33376 | -176.53880 | 34938 ft | 529 kts | 32° |
| 2026-05-07 19:58 | -12.27230 | -176.49788 | 34938 ft | 528 kts | 32° |
| 2026-05-07 19:58 | -12.21061 | -176.45683 | 34941 ft | 527 kts | 32° |
| 2026-05-07 19:59 | -12.14910 | -176.41592 | 34941 ft | 528 kts | 32° |
| 2026-05-07 19:59 | -12.08725 | -176.37480 | 34943 ft | 526 kts | 32° |
| 2026-05-07 20:00 | -12.02584 | -176.33401 | 34945 ft | 526 kts | 32° |
| 2026-05-07 20:00 | -11.96453 | -176.29330 | 34950 ft | 525 kts | 32° |
| 2026-05-07 20:01 | -11.90330 | -176.25267 | 34950 ft | 524 kts | 32° |
| 2026-05-07 20:01 | -11.84195 | -176.21197 | 34950 ft | 525 kts | 31° |
| 2026-05-07 20:02 | -11.78072 | -176.17139 | 34951 ft | 525 kts | 32° |
| 2026-05-07 20:02 | -11.71923 | -176.13065 | 34951 ft | 525 kts | 32° |
| 2026-05-07 20:03 | -11.65796 | -176.09009 | 34950 ft | 526 kts | 31° |
| 2026-05-07 20:03 | -11.59665 | -176.04950 | 34951 ft | 525 kts | 31° |
| 2026-05-07 20:04 | -11.53529 | -176.00891 | 34951 ft | 524 kts | 31° |
| 2026-05-07 20:04 | -11.47393 | -175.96835 | 34950 ft | 525 kts | 31° |
| 2026-05-07 20:05 | -11.41265 | -175.92786 | 34951 ft | 524 kts | 31° |
| 2026-05-07 20:05 | -11.35120 | -175.88728 | 34953 ft | 527 kts | 31° |
| 2026-05-07 20:06 | -11.28980 | -175.84674 | 34952 ft | 526 kts | 32° |
| 2026-05-07 20:06 | -11.22809 | -175.80603 | 34950 ft | 526 kts | 31° |
| 2026-05-07 20:07 | -11.16690 | -175.76569 | 34953 ft | 525 kts | 31° |
| 2026-05-07 20:07 | -11.10552 | -175.72523 | 34952 ft | 526 kts | 31° |
| 2026-05-07 20:08 | -11.04395 | -175.68468 | 34950 ft | 526 kts | 31° |
| 2026-05-07 20:08 | -10.98213 | -175.64397 | 34951 ft | 527 kts | 31° |
| 2026-05-07 20:09 | -10.92048 | -175.60339 | 34950 ft | 527 kts | 31° |
| 2026-05-07 20:10 | -10.82804 | -175.54260 | 34951 ft | 528 kts | 31° |
| 2026-05-07 20:10 | -10.76635 | -175.50206 | 34950 ft | 527 kts | 31° |
| 2026-05-07 20:11 | -10.70459 | -175.46150 | 34948 ft | 528 kts | 31° |
| 2026-05-07 20:11 | -10.64281 | -175.42093 | 34948 ft | 528 kts | 31° |
| 2026-05-07 20:12 | -10.58098 | -175.38036 | 34948 ft | 528 kts | 31° |
| 2026-05-07 20:12 | -10.51910 | -175.33975 | 34940 ft | 528 kts | 31° |
| 2026-05-07 20:13 | -10.45726 | -175.29923 | 34937 ft | 528 kts | 31° |
| 2026-05-07 20:13 | -10.39558 | -175.25880 | 34934 ft | 528 kts | 31° |
| 2026-05-07 20:14 | -10.33350 | -175.21814 | 34934 ft | 528 kts | 31° |
| 2026-05-07 20:14 | -10.27176 | -175.17770 | 34935 ft | 529 kts | 31° |
| 2026-05-07 20:15 | -10.20997 | -175.13727 | 34933 ft | 529 kts | 31° |
| 2026-05-07 20:15 | -10.14808 | -175.09680 | 34932 ft | 528 kts | 31° |
| 2026-05-07 20:16 | -10.08603 | -175.05623 | 34933 ft | 528 kts | 31° |
| 2026-05-07 20:16 | -10.02442 | -175.01598 | 34929 ft | 526 kts | 31° |
| 2026-05-07 20:17 | -9.95910 | -174.98352 | 34934 ft | 524 kts | 20° |
| 2026-05-07 20:17 | -9.89103 | -174.95586 | 34924 ft | 525 kts | 19° |
| 2026-05-07 20:18 | -9.82277 | -174.92819 | 34929 ft | 525 kts | 19° |
| 2026-05-07 20:18 | -9.75480 | -174.90067 | 34928 ft | 525 kts | 19° |
| 2026-05-07 20:19 | -9.68716 | -174.87328 | 34933 ft | 524 kts | 19° |
| 2026-05-07 20:19 | -9.61943 | -174.84587 | 34925 ft | 524 kts | 19° |
| 2026-05-07 20:20 | -9.55156 | -174.81842 | 34929 ft | 524 kts | 19° |
| 2026-05-07 20:20 | -9.48335 | -174.79085 | 34932 ft | 523 kts | 19° |
| 2026-05-07 20:21 | -9.41595 | -174.76361 | 34937 ft | 524 kts | 19° |
| 2026-05-07 20:21 | -9.34787 | -174.73610 | 34936 ft | 522 kts | 19° |
| 2026-05-07 20:22 | -9.28025 | -174.70880 | 34942 ft | 522 kts | 19° |
| 2026-05-07 20:22 | -9.21220 | -174.68133 | 34949 ft | 523 kts | 19° |
| 2026-05-07 20:23 | -9.14485 | -174.65418 | 34953 ft | 523 kts | 19° |
| 2026-05-07 20:23 | -9.07721 | -174.62689 | 34954 ft | 522 kts | 19° |
| 2026-05-07 20:24 | -9.00924 | -174.59949 | 34954 ft | 522 kts | 19° |
| 2026-05-07 20:24 | -8.94170 | -174.57228 | 34954 ft | 521 kts | 19° |
| 2026-05-07 20:25 | -8.87423 | -174.54511 | 34954 ft | 521 kts | 19° |
| 2026-05-07 20:25 | -8.80681 | -174.51796 | 34954 ft | 521 kts | 19° |
| 2026-05-07 20:26 | -8.73949 | -174.49086 | 34952 ft | 520 kts | 19° |
| 2026-05-07 20:26 | -8.67235 | -174.46385 | 34952 ft | 519 kts | 19° |
| 2026-05-07 20:27 | -8.60482 | -174.43671 | 34953 ft | 520 kts | 19° |
| 2026-05-07 20:27 | -8.53768 | -174.40970 | 34951 ft | 518 kts | 19° |
| 2026-05-07 20:28 | -8.47041 | -174.38268 | 34951 ft | 518 kts | 19° |
| 2026-05-07 20:28 | -8.40311 | -174.35564 | 34945 ft | 517 kts | 19° |
| 2026-05-07 20:29 | -8.33609 | -174.32873 | 34934 ft | 518 kts | 19° |
| 2026-05-07 20:29 | -8.26915 | -174.30186 | 34932 ft | 517 kts | 19° |
| 2026-05-07 20:30 | -8.20232 | -174.27504 | 34931 ft | 516 kts | 19° |
| 2026-05-07 20:30 | -8.13563 | -174.24829 | 34929 ft | 516 kts | 19° |
| 2026-05-07 20:31 | -8.06877 | -174.22148 | 34929 ft | 515 kts | 19° |
| 2026-05-07 20:31 | -8.00168 | -174.19459 | 34932 ft | 516 kts | 19° |
| 2026-05-07 20:32 | -7.93507 | -174.16791 | 34930 ft | 516 kts | 19° |
| 2026-05-07 20:32 | -7.86843 | -174.14122 | 34930 ft | 514 kts | 19° |
| 2026-05-07 20:33 | -7.80131 | -174.11435 | 34931 ft | 515 kts | 19° |
| 2026-05-07 20:33 | -7.73471 | -174.08769 | 34929 ft | 515 kts | 19° |
| 2026-05-07 20:34 | -7.66823 | -174.06108 | 34929 ft | 515 kts | 19° |
| 2026-05-07 20:34 | -7.60122 | -174.03429 | 34930 ft | 515 kts | 20° |
| 2026-05-07 20:35 | -7.53455 | -174.00763 | 34932 ft | 515 kts | 19° |
| 2026-05-07 20:35 | -7.46812 | -173.98108 | 34932 ft | 514 kts | 19° |
| 2026-05-07 20:36 | -7.40128 | -173.95438 | 34930 ft | 515 kts | 20° |
| 2026-05-07 20:36 | -7.33542 | -173.92806 | 34930 ft | 514 kts | 20° |
| 2026-05-07 20:37 | -7.26853 | -173.90135 | 34931 ft | 514 kts | 20° |
| 2026-05-07 20:37 | -7.20211 | -173.87483 | 34929 ft | 514 kts | 20° |
| 2026-05-07 20:38 | -7.13544 | -173.84822 | 34930 ft | 514 kts | 20° |
| 2026-05-07 20:38 | -7.06919 | -173.82179 | 34931 ft | 513 kts | 20° |
| 2026-05-07 20:39 | -7.00231 | -173.79512 | 34931 ft | 513 kts | 20° |
| 2026-05-07 20:39 | -6.93565 | -173.76855 | 34934 ft | 513 kts | 20° |
| 2026-05-07 20:40 | -6.86924 | -173.74208 | 34933 ft | 514 kts | 20° |
| 2026-05-07 20:40 | -6.80265 | -173.71555 | 34930 ft | 514 kts | 20° |
| 2026-05-07 20:41 | -6.73607 | -173.68903 | 34930 ft | 514 kts | 20° |
| 2026-05-07 20:41 | -6.66964 | -173.66257 | 34940 ft | 514 kts | 20° |
| 2026-05-07 20:42 | -6.60269 | -173.63591 | 34954 ft | 514 kts | 20° |
| 2026-05-07 20:42 | -6.53599 | -173.60938 | 34943 ft | 514 kts | 20° |
| 2026-05-07 20:43 | -6.46920 | -173.58279 | 34947 ft | 514 kts | 20° |
| 2026-05-07 20:43 | -6.40282 | -173.55640 | 34946 ft | 513 kts | 20° |
| 2026-05-07 20:44 | -6.33619 | -173.52991 | 34950 ft | 514 kts | 20° |
| 2026-05-07 20:44 | -6.26952 | -173.50340 | 34939 ft | 514 kts | 20° |
| 2026-05-07 20:45 | -6.20272 | -173.47685 | 34938 ft | 514 kts | 20° |
| 2026-05-07 20:45 | -6.13593 | -173.45032 | 34939 ft | 513 kts | 20° |
| 2026-05-07 20:46 | -6.06937 | -173.42387 | 34934 ft | 513 kts | 20° |
| 2026-05-07 20:46 | -6.00289 | -173.39748 | 34933 ft | 513 kts | 20° |
| 2026-05-07 20:47 | -5.93598 | -173.37091 | 34932 ft | 515 kts | 20° |
| 2026-05-07 20:47 | -5.86921 | -173.34441 | 34930 ft | 514 kts | 20° |
| 2026-05-07 20:48 | -5.80249 | -173.31793 | 34930 ft | 514 kts | 20° |
| 2026-05-07 20:48 | -5.73588 | -173.29150 | 34929 ft | 514 kts | 20° |
| 2026-05-07 20:49 | -5.66952 | -173.26520 | 34928 ft | 514 kts | 20° |
| 2026-05-07 20:49 | -5.60268 | -173.23869 | 34930 ft | 514 kts | 20° |
| 2026-05-07 20:50 | -5.53589 | -173.21222 | 34931 ft | 514 kts | 20° |
| 2026-05-07 20:50 | -5.46933 | -173.18584 | 34930 ft | 515 kts | 20° |
| 2026-05-07 20:51 | -5.40245 | -173.15935 | 34931 ft | 514 kts | 20° |
| 2026-05-07 20:51 | -5.33562 | -173.13287 | 34931 ft | 514 kts | 20° |
| 2026-05-07 20:52 | -5.26894 | -173.10646 | 34931 ft | 514 kts | 20° |
| 2026-05-07 20:52 | -5.20174 | -173.07985 | 34930 ft | 515 kts | 20° |
| 2026-05-07 20:53 | -5.13501 | -173.05344 | 34930 ft | 515 kts | 20° |
| 2026-05-07 20:53 | -5.06790 | -173.02689 | 34931 ft | 515 kts | 20° |
| 2026-05-07 20:54 | -5.00099 | -173.00041 | 34928 ft | 515 kts | 20° |
| 2026-05-07 20:54 | -4.93433 | -172.97368 | 34930 ft | 515 kts | 20° |
| 2026-05-07 20:55 | -4.86761 | -172.94682 | 34932 ft | 515 kts | 20° |
| 2026-05-07 20:55 | -4.80085 | -172.91997 | 34930 ft | 515 kts | 21° |
| 2026-05-07 20:56 | -4.73439 | -172.89325 | 34930 ft | 516 kts | 21° |
| 2026-05-07 20:56 | -4.66758 | -172.86639 | 34928 ft | 514 kts | 21° |
| 2026-05-07 20:57 | -4.60106 | -172.83968 | 34923 ft | 514 kts | 21° |
| 2026-05-07 20:57 | -4.53451 | -172.81294 | 34920 ft | 513 kts | 20° |
| 2026-05-07 20:58 | -4.46818 | -172.78630 | 34921 ft | 513 kts | 21° |
| 2026-05-07 20:58 | -4.40151 | -172.75952 | 34921 ft | 513 kts | 20° |
| 2026-05-07 20:59 | -4.33486 | -172.73277 | 34921 ft | 513 kts | 20° |
| 2026-05-07 20:59 | -4.26875 | -172.70624 | 34930 ft | 513 kts | 21° |
| 2026-05-07 21:00 | -4.20222 | -172.67953 | 34935 ft | 513 kts | 20° |
| 2026-05-07 21:00 | -4.13568 | -172.65285 | 34934 ft | 513 kts | 21° |
| 2026-05-07 21:01 | -4.06932 | -172.62622 | 34933 ft | 511 kts | 21° |
| 2026-05-07 21:01 | -4.00308 | -172.59966 | 34933 ft | 511 kts | 21° |
| 2026-05-07 21:02 | -3.93716 | -172.57323 | 34930 ft | 510 kts | 21° |
| 2026-05-07 21:02 | -3.87104 | -172.54671 | 34932 ft | 511 kts | 21° |
| 2026-05-07 21:03 | -3.80460 | -172.52008 | 34932 ft | 512 kts | 21° |
| 2026-05-07 21:03 | -3.73852 | -172.49359 | 34931 ft | 511 kts | 21° |
| 2026-05-07 21:04 | -3.67208 | -172.46698 | 34932 ft | 511 kts | 21° |
| 2026-05-07 21:04 | -3.60583 | -172.44043 | 34931 ft | 511 kts | 21° |
| 2026-05-07 21:05 | -3.54003 | -172.41408 | 34931 ft | 510 kts | 21° |
| 2026-05-07 21:05 | -3.47367 | -172.38750 | 34932 ft | 510 kts | 21° |
| 2026-05-07 21:06 | -3.40770 | -172.36107 | 34929 ft | 509 kts | 21° |
| 2026-05-07 21:06 | -3.34178 | -172.33469 | 34928 ft | 508 kts | 21° |
| 2026-05-07 21:07 | -3.27610 | -172.30838 | 34925 ft | 507 kts | 21° |
| 2026-05-07 21:07 | -3.21019 | -172.28200 | 34924 ft | 508 kts | 21° |
| 2026-05-07 21:08 | -3.14439 | -172.25568 | 34925 ft | 508 kts | 21° |
| 2026-05-07 21:08 | -3.07894 | -172.22948 | 34929 ft | 508 kts | 21° |
| 2026-05-07 21:09 | -3.01275 | -172.20299 | 34930 ft | 507 kts | 21° |
| 2026-05-07 21:09 | -2.94751 | -172.17690 | 34928 ft | 506 kts | 21° |
| 2026-05-07 21:10 | -2.88185 | -172.15062 | 34930 ft | 506 kts | 21° |
| 2026-05-07 21:10 | -2.81662 | -172.12454 | 34931 ft | 506 kts | 21° |
| 2026-05-07 21:11 | -2.75110 | -172.09834 | 34933 ft | 506 kts | 21° |
| 2026-05-07 21:11 | -2.65238 | -172.05885 | 34929 ft | 507 kts | 21° |
| 2026-05-07 21:12 | -2.58710 | -172.03276 | 34931 ft | 505 kts | 21° |
| 2026-05-07 21:12 | -2.52175 | -172.00664 | 34930 ft | 505 kts | 21° |
| 2026-05-07 21:13 | -2.45638 | -171.98050 | 34932 ft | 504 kts | 21° |
| 2026-05-07 21:13 | -2.39104 | -171.95439 | 34927 ft | 504 kts | 21° |
| 2026-05-07 21:14 | -2.32573 | -171.92828 | 34932 ft | 506 kts | 21° |
| 2026-05-07 21:14 | -2.25986 | -171.90196 | 34931 ft | 506 kts | 21° |
| 2026-05-07 21:15 | -2.19441 | -171.87582 | 34929 ft | 506 kts | 21° |
| 2026-05-07 21:15 | -2.12932 | -171.84981 | 34930 ft | 505 kts | 21° |
| 2026-05-07 21:16 | -2.06376 | -171.82362 | 34922 ft | 504 kts | 21° |
| 2026-05-07 21:16 | -1.99842 | -171.79753 | 34911 ft | 504 kts | 21° |
| 2026-05-07 21:17 | -1.93298 | -171.77139 | 34908 ft | 505 kts | 21° |
| 2026-05-07 21:17 | -1.86764 | -171.74530 | 34911 ft | 506 kts | 21° |
| 2026-05-07 21:18 | -1.80208 | -171.71912 | 34911 ft | 507 kts | 21° |
| 2026-05-07 21:18 | -1.73652 | -171.69293 | 34911 ft | 506 kts | 21° |
| 2026-05-07 21:19 | -1.67106 | -171.66679 | 34911 ft | 505 kts | 21° |
| 2026-05-07 21:19 | -1.60560 | -171.64066 | 34910 ft | 504 kts | 21° |
| 2026-05-07 21:20 | -1.54029 | -171.61459 | 34910 ft | 504 kts | 21° |
| 2026-05-07 21:20 | -1.47477 | -171.58844 | 34910 ft | 503 kts | 21° |
| 2026-05-07 21:21 | -1.40964 | -171.56244 | 34909 ft | 504 kts | 21° |
| 2026-05-07 21:21 | -1.34403 | -171.53624 | 34909 ft | 504 kts | 21° |
| 2026-05-07 21:22 | -1.27883 | -171.51022 | 34910 ft | 505 kts | 21° |
| 2026-05-07 21:22 | -1.21336 | -171.48410 | 34909 ft | 504 kts | 21° |
| 2026-05-07 21:23 | -1.14838 | -171.45816 | 34909 ft | 504 kts | 21° |
| 2026-05-07 21:23 | -1.08324 | -171.43216 | 34909 ft | 503 kts | 21° |
| 2026-05-07 21:24 | -1.01797 | -171.40611 | 34909 ft | 504 kts | 21° |
| 2026-05-07 21:24 | -0.95284 | -171.38013 | 34909 ft | 504 kts | 21° |
| 2026-05-07 21:25 | -0.88744 | -171.35403 | 34911 ft | 505 kts | 21° |
| 2026-05-07 21:25 | -0.82208 | -171.32796 | 34908 ft | 505 kts | 21° |
| 2026-05-07 21:26 | -0.75663 | -171.30185 | 34911 ft | 503 kts | 21° |
| 2026-05-07 21:26 | -0.69164 | -171.27591 | 34907 ft | 503 kts | 21° |
| 2026-05-07 21:27 | -0.62625 | -171.24982 | 34917 ft | 503 kts | 21° |
| 2026-05-07 21:27 | -0.56113 | -171.22385 | 34926 ft | 504 kts | 21° |
| 2026-05-07 21:28 | -0.49579 | -171.19778 | 34930 ft | 504 kts | 21° |
| 2026-05-07 21:28 | -0.43034 | -171.17166 | 34926 ft | 504 kts | 21° |
| 2026-05-07 21:29 | -0.36478 | -171.14551 | 34927 ft | 504 kts | 21° |
| 2026-05-07 21:29 | -0.29972 | -171.11957 | 34929 ft | 504 kts | 21° |
| 2026-05-07 21:30 | -0.23422 | -171.09343 | 34928 ft | 504 kts | 21° |